Overview Statistics Trail Chart Weather Telemetry Raw packets
 

This is the latest recevied weather packets stored in our database for station/object KG5VSR. If no packets are shown the sender has not sent any weather packets the latest 10 day(s).

<< 7 8 9 10 11 12 13 >>
Time Temp. Humidity Pressure Rain* Wind** Luminosity Snow
1788282589 36.11° C 53% 1017.6 hPa 0 mm - 462 W/m² -
1788280788 33.89° C 58% 1017.6 hPa 0 mm - 913 W/m² -
1788278989 34.44° C 57% 1017.9 hPa 0 mm - 746 W/m² -
1788277186 32.78° C 61% 1017.8 hPa 0 mm - 600 W/m² -
1788275387 31.67° C 65% 1017.7 hPa 0 mm - 507 W/m² -
1788273585 30.56° C 69% 1018 hPa 0 mm - 155 W/m² -
1788271785 30.56° C 70% 1017.9 hPa 0 mm - 162 W/m² -
1788269982 30° C 71% 1017.7 hPa 0 mm - 156 W/m² -
1788268180 28.89° C 73% 1018.1 hPa 0 mm - 89 W/m² -
1788266381 27.22° C 77% 1017.5 hPa 0 mm - 36 W/m² -
1788264580 26.11° C 79% 1017 hPa 0 mm - 5 W/m² -
1788262779 26.11° C 79% 1016.9 hPa 0 mm - 0 W/m² -
1788260978 26.67° C 76% 1016.8 hPa 0 mm - 0 W/m² -
1788259175 26.67° C 75% 1016.6 hPa 0 mm - 0 W/m² -
1788257372 27.22° C 73% 1016.8 hPa 0 mm - 0 W/m² -
1788255569 27.78° C 70% 1017 hPa 0 mm - 0 W/m² -
1788253769 27.78° C 70% 1016.7 hPa 0 mm - 0 W/m² -
1788251965 28.33° C 68% 1016.6 hPa 0 mm - 0 W/m² -
1788250161 28.89° C 66% 1016.5 hPa 0 mm - 0 W/m² -
1788248357 29.44° C 64% 1016.6 hPa 0 mm - 0 W/m² -
1788246553 30° C 62% 1016.3 hPa 0 mm - 0 W/m² -
1788244749 30.56° C 60% 1016.3 hPa 0 mm - 0 W/m² -
1788242947 30.56° C 58% 1016 hPa 0 mm - 0 W/m² -
1788241145 31.11° C 56% 1015.9 hPa 0 mm - 0 W/m² -
1788239344 30.56° C 55% 1015.6 hPa 0 mm - 0 W/m² -

* Rain latest hour (hover to see other rain measurements)
** Current wind speed in m/s (hover to see current wind gust speed)